createdAt,value
2018-12-03T00:01:55.965Z,85.25
2018-12-03T00:04:24.385Z,85.56
2018-12-03T00:06:51.813Z,85.28
2018-12-03T00:09:22.794Z,85.60
2018-12-03T00:11:50.455Z,85.18
2018-12-03T00:14:17.811Z,85.69
2018-12-03T00:16:45.169Z,85.31
2018-12-03T00:19:12.512Z,85.25
2018-12-03T00:21:40.273Z,85.67
2018-12-03T00:24:07.595Z,85.17
2018-12-03T00:26:34.942Z,85.34
2018-12-03T00:29:02.278Z,84.99
2018-12-03T00:31:29.943Z,85.58
2018-12-03T00:33:57.259Z,85.58
2018-12-03T00:36:24.593Z,85.26
2018-12-03T00:38:53.082Z,85.48
2018-12-03T00:41:20.416Z,85.74
2018-12-03T00:43:48.631Z,85.91
2018-12-03T00:46:16.268Z,85.65
2018-12-03T00:48:43.662Z,85.84
2018-12-03T00:51:10.968Z,85.31
2018-12-03T00:53:38.774Z,85.59
2018-12-03T00:56:06.133Z,85.33
2018-12-03T00:58:33.468Z,85.41
2018-12-03T01:01:00.783Z,85.18
2018-12-03T01:03:28.482Z,85.28
2018-12-03T01:05:55.820Z,85.92
2018-12-03T01:08:23.157Z,85.33
2018-12-03T01:10:50.863Z,85.80
2018-12-03T01:13:18.269Z,85.72
2018-12-03T01:15:45.633Z,85.43
2018-12-03T01:18:12.934Z,85.92
2018-12-03T01:20:40.588Z,85.73
2018-12-03T01:23:11.554Z,85.85
2018-12-03T01:25:38.934Z,86.38
2018-12-03T01:28:06.301Z,85.78
2018-12-03T01:30:34.097Z,85.95
2018-12-03T01:33:01.446Z,86.22
2018-12-03T01:35:28.759Z,86.35
2018-12-03T01:37:56.132Z,85.74
2018-12-03T01:40:23.515Z,85.93
2018-12-03T01:42:50.849Z,86.21
2018-12-03T01:45:18.271Z,86.06
2018-12-03T01:47:45.931Z,86.04
2018-12-03T01:50:13.235Z,86.29
2018-12-03T01:52:40.580Z,85.86
2018-12-03T01:55:08.057Z,85.82
2018-12-03T01:57:35.708Z,86.10
2018-12-03T02:00:03.057Z,85.87
2018-12-03T02:02:30.378Z,85.97
2018-12-03T02:04:57.814Z,86.47
2018-12-03T02:07:25.513Z,86.17
2018-12-03T02:09:53.659Z,86.58
2018-12-03T02:12:21.043Z,86.57
2018-12-03T02:14:48.398Z,85.93
2018-12-03T02:17:16.172Z,86.42
2018-12-03T02:19:43.568Z,85.88
2018-12-03T02:22:10.915Z,86.73
2018-12-03T02:24:38.253Z,86.57
2018-12-03T02:27:06.142Z,86.64
2018-12-03T02:29:34.347Z,86.36
2018-12-03T02:32:01.764Z,86.12
2018-12-03T02:34:29.075Z,86.46
2018-12-03T02:36:56.994Z,86.40
2018-12-03T02:39:24.359Z,86.27
2018-12-03T02:41:51.724Z,86.46
2018-12-03T02:44:19.060Z,85.94
2018-12-03T02:46:46.703Z,86.53
2018-12-03T02:49:14.034Z,86.59
2018-12-03T02:51:41.331Z,86.44
2018-12-03T02:54:08.668Z,86.16
2018-12-03T02:56:36.483Z,85.88
2018-12-03T02:59:03.882Z,86.15
2018-12-03T03:01:31.183Z,86.37
2018-12-03T03:03:58.504Z,86.16
2018-12-03T03:06:26.224Z,86.67
2018-12-03T03:08:53.544Z,85.93
2018-12-03T03:11:20.909Z,86.27
2018-12-03T03:13:48.527Z,86.38
2018-12-03T03:16:15.853Z,86.31
2018-12-03T03:18:43.201Z,86.59
2018-12-03T03:21:10.562Z,86.24
2018-12-03T03:23:38.382Z,86.13
2018-12-03T03:26:05.699Z,85.73
2018-12-03T03:28:33.015Z,86.44
2018-12-03T03:31:00.477Z,86.10
2018-12-03T03:33:28.168Z,85.92
2018-12-03T03:35:55.444Z,86.42
2018-12-03T03:38:22.738Z,86.25
2018-12-03T03:40:50.418Z,85.66
2018-12-03T03:43:17.682Z,86.48
2018-12-03T03:45:45.020Z,86.20
2018-12-03T03:48:12.287Z,86.02
2018-12-03T03:50:39.976Z,86.05
2018-12-03T03:53:07.246Z,85.92
2018-12-03T03:55:34.787Z,86.51
2018-12-03T03:58:02.358Z,86.67
2018-12-03T04:00:29.951Z,86.75
2018-12-03T04:02:57.222Z,86.72
2018-12-03T04:05:24.500Z,86.79
2018-12-03T04:07:51.836Z,86.46
2018-12-03T04:10:19.600Z,86.38
2018-12-03T04:12:47.049Z,85.87
2018-12-03T04:15:14.323Z,86.18
2018-12-03T04:17:41.646Z,86.09
2018-12-03T04:20:09.323Z,86.63
2018-12-03T04:22:36.620Z,85.74
2018-12-03T04:25:03.954Z,86.32
2018-12-03T04:27:31.603Z,85.75
2018-12-03T04:29:58.932Z,86.44
2018-12-03T04:32:26.353Z,85.73
2018-12-03T04:34:53.616Z,86.17
2018-12-03T04:37:21.267Z,86.45
2018-12-03T04:39:48.598Z,86.38
2018-12-03T04:42:15.849Z,86.12
2018-12-03T04:44:43.815Z,85.59
2018-12-03T04:47:11.505Z,86.43
2018-12-03T04:49:38.866Z,86.14
2018-12-03T04:52:06.192Z,85.66
2018-12-03T04:54:33.810Z,85.99
2018-12-03T04:57:01.090Z,85.80
2018-12-03T04:59:28.355Z,85.95
2018-12-03T05:01:55.642Z,85.83
2018-12-03T05:04:23.269Z,86.67
2018-12-03T05:06:51.653Z,86.12
2018-12-03T05:09:17.975Z,85.86
2018-12-03T05:11:45.728Z,86.35
2018-12-03T05:14:13.058Z,86.13
2018-12-03T05:16:40.429Z,86.65
2018-12-03T05:19:07.876Z,85.91
2018-12-03T05:21:35.729Z,86.01
2018-12-03T05:24:04.451Z,85.90
2018-12-03T05:26:30.550Z,86.77
2018-12-03T05:28:57.877Z,86.51
2018-12-03T05:31:25.679Z,86.45
2018-12-03T05:33:53.291Z,86.39
2018-12-03T05:36:20.630Z,86.23
2018-12-03T05:38:48.303Z,86.77
2018-12-03T05:41:15.655Z,86.98
2018-12-03T05:43:42.995Z,86.31
2018-12-03T05:46:10.802Z,86.66
2018-12-03T05:48:39.111Z,86.39
2018-12-03T05:51:06.452Z,86.62
2018-12-03T05:53:34.161Z,86.61
2018-12-03T05:56:02.489Z,86.35
2018-12-03T05:58:29.808Z,86.77
2018-12-03T06:00:57.536Z,86.51
2018-12-03T06:03:24.855Z,86.13
2018-12-03T06:05:52.176Z,86.91
2018-12-03T06:08:19.883Z,86.74
2018-12-03T06:10:47.239Z,86.60
2018-12-03T06:13:14.708Z,86.84
2018-12-03T06:15:42.620Z,86.32
2018-12-03T06:18:09.965Z,86.67
2018-12-03T06:20:37.366Z,86.37
2018-12-03T06:23:06.026Z,86.41
2018-12-03T06:25:33.355Z,86.94
2018-12-03T06:28:01.388Z,86.82
2018-12-03T06:30:29.417Z,86.43
2018-12-03T06:32:56.739Z,86.77
2018-12-03T06:35:24.064Z,86.36
2018-12-03T06:37:51.775Z,86.41
2018-12-03T06:40:19.085Z,86.45
2018-12-03T06:42:46.481Z,86.84
2018-12-03T06:45:14.135Z,87.11
2018-12-03T06:47:41.444Z,86.67
2018-12-03T06:50:08.789Z,86.60
2018-12-03T06:52:36.540Z,86.49
2018-12-03T06:55:03.873Z,86.44
2018-12-03T06:57:31.300Z,86.79
2018-12-03T06:59:59.061Z,86.61
2018-12-03T07:02:27.636Z,86.60
2018-12-03T07:04:53.832Z,86.77
2018-12-03T07:07:21.458Z,86.75
2018-12-03T07:09:48.860Z,86.53
2018-12-03T07:12:16.503Z,86.98
2018-12-03T07:14:44.127Z,86.51
2018-12-03T07:17:11.448Z,86.41
2018-12-03T07:19:39.387Z,86.37
2018-12-03T07:22:08.263Z,86.51
2018-12-03T07:24:35.676Z,86.00
2018-12-03T07:27:03.019Z,86.30
2018-12-03T07:29:30.740Z,85.99
2018-12-03T07:31:58.068Z,85.89
2018-12-03T07:34:25.424Z,85.91
2018-12-03T07:36:53.101Z,85.75
2018-12-03T07:39:20.450Z,85.97
2018-12-03T07:41:47.805Z,86.45
2018-12-03T07:44:15.499Z,86.22
2018-12-03T07:46:42.818Z,86.08
2018-12-03T07:49:10.153Z,85.44
2018-12-03T07:51:37.815Z,85.67
2018-12-03T07:54:05.135Z,85.60
2018-12-03T07:56:32.457Z,85.93
2018-12-03T07:59:00.216Z,85.63
2018-12-03T08:01:27.540Z,85.66
2018-12-03T08:03:54.876Z,86.15
2018-12-03T08:06:22.581Z,85.81
2018-12-03T08:08:50.676Z,85.91
2018-12-03T08:11:17.992Z,86.37
2018-12-03T08:13:45.805Z,85.45
2018-12-03T08:16:13.136Z,85.95
2018-12-03T08:18:40.483Z,85.81
2018-12-03T08:21:09.110Z,85.80
2018-12-03T08:23:36.471Z,86.06
2018-12-03T08:26:03.823Z,85.44
2018-12-03T08:28:31.517Z,85.16
2018-12-03T08:30:58.941Z,85.57
2018-12-03T08:33:26.270Z,85.20
2018-12-03T08:35:55.067Z,85.37
2018-12-03T08:38:22.359Z,85.56
2018-12-03T08:40:49.661Z,85.39
2018-12-03T08:43:17.908Z,85.13
2018-12-03T08:45:45.364Z,85.54
2018-12-03T08:48:12.724Z,84.81
2018-12-03T08:50:40.504Z,84.69
2018-12-03T08:53:09.223Z,84.90
2018-12-03T08:55:36.928Z,85.25
2018-12-03T08:58:07.960Z,84.75
2018-12-03T09:00:37.239Z,84.20
2018-12-03T09:03:05.839Z,84.55
2018-12-03T09:05:33.837Z,84.24
2018-12-03T09:08:02.059Z,84.37
2018-12-03T09:10:29.401Z,84.30
2018-12-03T09:12:58.088Z,83.70
2018-12-03T09:15:25.464Z,83.93
2018-12-03T09:17:53.451Z,83.63
2018-12-03T09:20:20.854Z,84.10
2018-12-03T09:22:48.240Z,83.98
2018-12-03T09:25:16.096Z,84.40
2018-12-03T09:27:44.075Z,83.58
2018-12-03T09:30:11.438Z,84.10
2018-12-03T09:32:46.190Z,83.96
2018-12-03T09:35:14.225Z,83.30
2018-12-03T09:37:43.831Z,83.81
2018-12-03T09:42:45.404Z,83.59
2018-12-03T09:45:13.645Z,83.55
2018-12-03T09:47:42.254Z,83.66
2018-12-03T09:50:11.216Z,83.13
2018-12-03T09:52:39.043Z,83.13
2018-12-03T09:55:06.723Z,83.59
2018-12-03T09:57:35.795Z,83.76
2018-12-03T10:00:04.332Z,84.03
2018-12-03T10:02:32.973Z,84.12
2018-12-03T10:05:00.396Z,84.24
2018-12-03T10:07:27.732Z,84.19
2018-12-03T10:09:56.016Z,83.48
2018-12-03T10:12:24.656Z,83.36
2018-12-03T10:14:55.594Z,83.41
2018-12-03T10:17:31.611Z,82.98
2018-12-03T10:19:59.283Z,82.79
2018-12-03T10:22:26.624Z,82.55
2018-12-03T10:24:55.336Z,82.21
2018-12-03T10:27:22.654Z,82.09
2018-12-03T10:29:50.316Z,82.74
2018-12-03T10:32:19.855Z,82.64
2018-12-03T10:34:51.713Z,82.46
2018-12-03T10:37:20.867Z,82.82
2018-12-03T10:42:22.270Z,82.38
2018-12-03T10:44:49.872Z,82.73
2018-12-03T10:47:18.471Z,81.97
2018-12-03T10:49:46.748Z,81.91
2018-12-03T10:52:14.059Z,81.87
2018-12-03T10:54:42.294Z,82.10
2018-12-03T10:57:09.664Z,81.58
2018-12-03T10:59:39.919Z,82.00
2018-12-03T11:02:12.751Z,81.02
2018-12-03T11:04:44.787Z,81.04
2018-12-03T11:07:12.156Z,81.28
2018-12-03T11:09:40.411Z,80.95
2018-12-03T11:12:07.755Z,80.92
2018-12-03T11:14:35.064Z,81.08
2018-12-03T11:17:02.819Z,81.69
2018-12-03T11:19:30.180Z,81.74
2018-12-03T11:21:57.483Z,82.00
2018-12-03T11:24:25.355Z,81.72
2018-12-03T11:26:52.707Z,82.23
2018-12-03T11:29:20.052Z,82.34
2018-12-03T11:31:47.765Z,82.42
2018-12-03T11:34:16.224Z,82.54
2018-12-03T11:36:44.453Z,81.73
2018-12-03T11:39:15.989Z,82.12
2018-12-03T11:41:43.302Z,81.82
2018-12-03T11:44:10.751Z,81.62
2018-12-03T11:46:38.549Z,81.20
2018-12-03T11:49:05.928Z,81.09
2018-12-03T11:51:33.289Z,80.92
2018-12-03T11:54:03.143Z,81.55
2018-12-03T11:56:30.489Z,80.63
2018-12-03T11:58:57.856Z,80.32
2018-12-03T12:01:25.583Z,80.34
2018-12-03T12:03:52.923Z,79.72
2018-12-03T12:06:20.981Z,80.30
2018-12-03T12:08:48.683Z,79.86
2018-12-03T12:11:16.170Z,80.21
2018-12-03T12:13:43.552Z,81.10
2018-12-03T12:16:11.344Z,81.56
2018-12-03T12:18:38.708Z,81.11
2018-12-03T12:21:06.034Z,81.66
2018-12-03T12:23:33.700Z,81.42
2018-12-03T12:26:01.122Z,81.81
2018-12-03T12:28:28.475Z,81.90
2018-12-03T12:30:56.231Z,81.41
2018-12-03T12:33:23.604Z,82.14
2018-12-03T12:35:50.965Z,82.19
2018-12-03T12:38:18.608Z,81.35
2018-12-03T12:40:45.954Z,81.13
2018-12-03T12:43:13.306Z,81.57
2018-12-03T12:45:41.036Z,80.97
2018-12-03T12:48:08.418Z,81.34
2018-12-03T12:50:35.823Z,81.45
2018-12-03T12:53:03.569Z,81.17
2018-12-03T12:55:30.935Z,81.91
2018-12-03T12:57:59.655Z,81.23
2018-12-03T13:00:27.376Z,81.07
2018-12-03T13:02:54.717Z,81.51
2018-12-03T13:05:28.544Z,80.80
2018-12-03T13:07:51.184Z,80.17
2018-12-03T13:10:19.064Z,80.79
2018-12-03T13:12:46.446Z,81.22
2018-12-03T13:15:15.331Z,81.06
2018-12-03T13:17:43.233Z,81.71
2018-12-03T13:20:10.568Z,81.02
2018-12-03T13:22:38.741Z,81.61
2018-12-03T13:25:06.806Z,81.31
2018-12-03T13:27:34.399Z,81.67
2018-12-03T13:30:02.200Z,81.51
2018-12-03T13:32:29.552Z,81.00
2018-12-03T13:34:58.370Z,81.36
2018-12-03T13:37:27.263Z,82.04
2018-12-03T13:39:56.260Z,81.59
2018-12-03T13:42:24.574Z,81.62
2018-12-03T13:44:54.617Z,82.58
2018-12-03T13:47:21.923Z,82.71
2018-12-03T13:49:49.564Z,82.77
2018-12-03T13:52:17.288Z,83.00
2018-12-03T13:54:45.593Z,83.33
2018-12-03T13:57:13.264Z,83.18
2018-12-03T13:59:41.043Z,83.76
2018-12-03T14:02:08.351Z,83.89
2018-12-03T14:04:35.695Z,83.70
2018-12-03T14:07:04.059Z,83.55
2018-12-03T14:09:31.394Z,83.45
2018-12-03T14:11:58.748Z,83.21
2018-12-03T14:14:26.508Z,83.32
2018-12-03T14:16:54.782Z,83.69
2018-12-03T14:19:22.092Z,83.38
2018-12-03T14:21:49.783Z,83.77
2018-12-03T14:24:17.189Z,83.47
2018-12-03T14:26:45.176Z,83.82
2018-12-03T14:29:12.886Z,83.52
2018-12-03T14:31:40.218Z,83.93
2018-12-03T14:34:07.596Z,83.60
2018-12-03T14:36:35.247Z,83.81
2018-12-03T14:39:02.598Z,83.80
2018-12-03T14:42:07.047Z,83.36
2018-12-03T14:44:34.674Z,83.22
2018-12-03T14:47:02.323Z,83.40
2018-12-03T14:49:30.375Z,82.98
2018-12-03T14:51:58.002Z,82.35
2018-12-03T14:54:27.118Z,82.93
2018-12-03T14:56:55.246Z,82.93
2018-12-03T14:59:22.879Z,82.97
2018-12-03T15:01:50.505Z,82.42
2018-12-03T15:04:20.524Z,82.25
2018-12-03T15:06:49.274Z,82.59
2018-12-03T15:09:17.526Z,82.60
2018-12-03T15:11:45.858Z,83.19
2018-12-03T15:14:21.643Z,83.34
2018-12-03T15:16:49.622Z,83.45
2018-12-03T15:19:17.245Z,82.79
2018-12-03T15:21:45.442Z,83.33
2018-12-03T15:24:14.255Z,83.20
2018-12-03T15:26:42.520Z,83.35
2018-12-03T15:29:11.910Z,83.42
2018-12-03T15:31:40.961Z,83.25
2018-12-03T15:34:08.573Z,84.08
2018-12-03T15:36:39.432Z,83.65
2018-12-03T15:39:08.507Z,84.33
2018-12-03T15:41:36.806Z,84.26
2018-12-03T15:44:04.454Z,83.56
2018-12-03T15:46:32.410Z,84.07
2018-12-03T15:49:01.406Z,84.19
2018-12-03T15:51:28.993Z,84.50
2018-12-03T15:53:57.004Z,83.94
2018-12-03T15:56:24.621Z,83.92
2018-12-03T15:58:52.220Z,84.50
2018-12-03T16:01:21.153Z,83.94
2018-12-03T16:03:48.762Z,83.66
2018-12-03T16:06:18.815Z,83.99
2018-12-03T16:08:46.894Z,83.73
2018-12-03T16:11:14.477Z,84.11
2018-12-03T16:13:43.504Z,84.41
2018-12-03T16:16:11.532Z,83.79
2018-12-03T16:18:40.605Z,83.70
2018-12-03T16:21:08.227Z,83.62
2018-12-03T16:23:36.286Z,84.30
2018-12-03T16:26:04.502Z,83.98
2018-12-03T16:28:32.760Z,84.20
2018-12-03T16:31:00.717Z,83.88
2018-12-03T16:33:29.645Z,83.69
2018-12-03T16:35:57.244Z,83.72
2018-12-03T16:38:26.038Z,83.47
2018-12-03T16:40:55.503Z,83.98
2018-12-03T16:45:56.045Z,84.07
2018-12-03T16:48:23.661Z,83.25
2018-12-03T16:50:51.326Z,83.78
2018-12-03T16:53:19.236Z,83.51
2018-12-03T16:55:46.820Z,83.52
2018-12-03T16:58:14.507Z,83.90
2018-12-03T17:00:42.533Z,83.98
2018-12-03T17:03:10.138Z,83.68
2018-12-03T17:05:38.720Z,83.54
2018-12-03T17:08:06.809Z,83.84
2018-12-03T17:10:34.393Z,83.24
2018-12-03T17:13:02.960Z,83.47
2018-12-03T17:15:32.996Z,83.47
2018-12-03T17:18:00.688Z,83.69
2018-12-03T17:20:28.953Z,83.84
2018-12-03T17:22:57.853Z,84.10
2018-12-03T17:25:25.486Z,83.82
2018-12-03T17:27:53.108Z,83.36
2018-12-03T17:30:21.052Z,83.59
2018-12-03T17:32:48.691Z,83.84
2018-12-03T17:35:16.321Z,83.66
2018-12-03T17:37:45.042Z,83.45
2018-12-03T17:40:13.664Z,83.96
2018-12-03T17:42:41.594Z,84.18
2018-12-03T17:45:10.417Z,83.54
2018-12-03T17:47:39.701Z,83.45
2018-12-03T17:50:07.920Z,83.63
2018-12-03T17:52:36.193Z,83.49
2018-12-03T17:55:03.791Z,83.19
2018-12-03T17:57:32.241Z,83.00
2018-12-03T18:00:00.322Z,83.40
2018-12-03T18:02:28.601Z,83.04
2018-12-03T18:04:57.441Z,82.96
2018-12-03T18:07:28.518Z,82.96
2018-12-03T18:09:56.108Z,83.17
2018-12-03T18:12:23.694Z,82.67
2018-12-03T18:14:51.646Z,83.12
2018-12-03T18:17:19.268Z,83.26
2018-12-03T18:19:46.930Z,82.53
2018-12-03T18:22:15.747Z,82.87
2018-12-03T18:24:43.650Z,83.14
2018-12-03T18:27:11.244Z,83.14
2018-12-03T18:29:40.213Z,83.22
2018-12-03T18:32:14.818Z,83.09
2018-12-03T18:34:42.467Z,82.84
2018-12-03T18:37:10.399Z,82.55
2018-12-03T18:39:38.314Z,83.00
2018-12-03T18:42:06.974Z,82.83
2018-12-03T18:44:35.175Z,82.14
2018-12-03T18:47:04.247Z,82.14
2018-12-03T18:49:31.848Z,82.60
2018-12-03T18:51:59.842Z,82.86
2018-12-03T18:54:27.423Z,82.30
2018-12-03T18:56:55.582Z,81.98
2018-12-03T18:59:24.254Z,82.44
2018-12-03T19:01:51.877Z,82.62
2018-12-03T19:04:20.493Z,82.03
2018-12-03T19:06:49.473Z,81.69
2018-12-03T19:09:17.977Z,82.57
2018-12-03T19:11:46.603Z,82.06
2018-12-03T19:14:14.578Z,81.70
2018-12-03T19:16:42.190Z,82.06
2018-12-03T19:19:10.493Z,81.97
2018-12-03T19:21:39.811Z,82.14
2018-12-03T19:24:08.213Z,82.48
2018-12-03T19:26:36.829Z,82.31
2018-12-03T19:29:05.885Z,82.04
2018-12-03T19:31:33.839Z,82.65
2018-12-03T19:34:01.453Z,83.10
2018-12-03T19:36:29.486Z,82.86
2018-12-03T19:38:57.431Z,82.74
2018-12-03T19:41:25.746Z,82.72
2018-12-03T19:43:54.318Z,82.79
2018-12-03T19:46:23.436Z,83.11
2018-12-03T19:48:51.750Z,83.18
2018-12-03T19:51:19.736Z,83.57
2018-12-03T19:53:47.387Z,83.62
2018-12-03T19:56:14.992Z,83.14
2018-12-03T19:58:43.759Z,83.55
2018-12-03T20:01:12.290Z,83.63
2018-12-03T20:03:44.528Z,83.70
2018-12-03T20:06:13.207Z,83.55
2018-12-03T20:08:42.139Z,83.31
2018-12-03T20:11:09.801Z,83.35
2018-12-03T20:13:37.726Z,83.99
2018-12-03T20:16:05.350Z,83.96
2018-12-03T20:18:35.782Z,83.99
2018-12-03T20:21:03.761Z,84.02
2018-12-03T20:23:31.387Z,84.07
2018-12-03T20:25:59.838Z,83.96
2018-12-03T20:28:27.814Z,84.01
2018-12-03T20:30:55.442Z,84.27
2018-12-03T20:33:23.751Z,83.52
2018-12-03T20:35:52.346Z,83.54
2018-12-03T20:38:19.963Z,83.92
2018-12-03T20:40:48.626Z,84.08
2018-12-03T20:43:17.495Z,83.80
2018-12-03T20:45:45.830Z,84.20
2018-12-03T20:48:13.425Z,84.35
2018-12-03T20:50:43.641Z,84.12
2018-12-03T20:53:11.481Z,84.37
2018-12-03T20:55:39.826Z,84.13
2018-12-03T20:58:09.618Z,83.67
2018-12-03T21:00:37.933Z,83.61
2018-12-03T21:03:06.379Z,84.09
2018-12-03T21:05:36.207Z,84.30
2018-12-03T21:08:05.288Z,83.77
2018-12-03T21:10:33.467Z,84.20
2018-12-03T21:13:02.700Z,84.27
2018-12-03T21:15:30.347Z,84.53
2018-12-03T21:17:57.945Z,84.44
2018-12-03T21:20:26.010Z,84.21
2018-12-03T21:22:53.666Z,84.45
2018-12-03T21:25:23.011Z,84.19
2018-12-03T21:27:51.009Z,84.19
2018-12-03T21:30:18.654Z,84.50
2018-12-03T21:32:46.252Z,84.25
2018-12-03T21:35:14.233Z,84.67
2018-12-03T21:37:43.788Z,84.57
2018-12-03T21:40:12.312Z,84.62
2018-12-03T21:42:42.815Z,84.34
2018-12-03T21:45:10.527Z,84.25
2018-12-03T21:47:40.049Z,84.04
2018-12-03T21:50:07.976Z,84.24
2018-12-03T21:52:36.049Z,84.00
2018-12-03T21:55:05.025Z,84.26
2018-12-03T21:57:34.456Z,84.13
2018-12-03T22:00:02.164Z,84.25
2018-12-03T22:02:29.758Z,84.55
2018-12-03T22:04:58.622Z,84.42
2018-12-03T22:07:26.297Z,84.53
2018-12-03T22:09:53.868Z,84.37
2018-12-03T22:12:21.855Z,84.35
2018-12-03T22:14:49.474Z,85.08
2018-12-03T22:17:17.097Z,85.00
2018-12-03T22:19:45.983Z,84.61
2018-12-03T22:22:14.467Z,84.72
2018-12-03T22:24:45.280Z,85.28
2018-12-03T22:27:13.956Z,85.69
2018-12-03T22:29:41.868Z,85.75
2018-12-03T22:32:09.873Z,85.25
2018-12-03T22:34:37.847Z,85.81
2018-12-03T22:37:05.431Z,85.38
2018-12-03T22:39:33.138Z,85.23
2018-12-03T22:42:00.733Z,85.35
2018-12-03T22:44:28.346Z,85.37
2018-12-03T22:46:56.356Z,85.12
2018-12-03T22:49:23.922Z,85.53
2018-12-03T22:51:51.526Z,85.62
2018-12-03T22:54:19.425Z,85.11
2018-12-03T22:56:47.024Z,85.17
2018-12-03T22:59:15.391Z,85.66
2018-12-03T23:01:43.035Z,84.82
2018-12-03T23:04:11.106Z,84.86
2018-12-03T23:06:39.716Z,85.67
2018-12-03T23:09:07.323Z,85.56
2018-12-03T23:11:38.056Z,85.41
2018-12-03T23:14:05.726Z,85.46
2018-12-03T23:16:33.343Z,85.13
2018-12-03T23:19:01.409Z,85.17
2018-12-03T23:21:29.013Z,85.31
2018-12-03T23:23:56.694Z,84.84
2018-12-03T23:26:25.546Z,85.22
2018-12-03T23:28:53.991Z,84.78
2018-12-03T23:31:21.644Z,84.50
2018-12-03T23:33:49.745Z,85.29
2018-12-03T23:36:17.361Z,84.66
2018-12-03T23:38:46.412Z,84.61
2018-12-03T23:41:14.311Z,84.76
2018-12-03T23:43:41.930Z,85.21
2018-12-03T23:46:09.568Z,85.44
2018-12-03T23:48:37.207Z,85.14
2018-12-03T23:51:05.221Z,85.13
2018-12-03T23:53:32.841Z,84.62
2018-12-03T23:56:00.470Z,85.10
2018-12-03T23:58:28.093Z,85.12
